sim
Sign-in with your pilot id or email,
or register
Callsign
Passwort

Schedule Details

Flight Number: RYR4282 (2)
Departure: Dublin Airport (EIDW) at 18:35
Arrival: Bratislava M. R. Stefanik Airport (LZIB) at 21:20
Route: Ryanair Passenger Schedule. Enter filed route here before submitting Pirep.

Weather Information
Getting current METAR information for EIDW 232000Z 19010KT 9999 FEW015 BKN032 12/09 Q1002 NOSIG
Getting current METAR information for LZIB 232000Z 05007KT CAVOK 13/10 Q1017

Schedule Frequency

Route Map